createdAt,value
2018-07-28T00:01:37.935Z,24.50
2018-07-28T00:04:06.818Z,24.50
2018-07-28T00:06:35.619Z,24.50
2018-07-28T00:09:07.120Z,24.40
2018-07-28T00:11:36.188Z,24.40
2018-07-28T00:16:33.847Z,24.40
2018-07-28T00:19:02.671Z,24.30
2018-07-28T00:21:31.566Z,24.30
2018-07-28T00:24:00.450Z,24.20
2018-07-28T00:26:29.311Z,24.20
2018-07-28T00:28:58.136Z,24.20
2018-07-28T00:31:27.037Z,24.20
2018-07-28T00:33:55.933Z,24.20
2018-07-28T00:38:53.236Z,24.20
2018-07-28T00:41:22.081Z,24.10
2018-07-28T00:43:50.895Z,24.10
2018-07-28T00:46:19.755Z,24.10
2018-07-28T00:48:48.592Z,24.10
2018-07-28T00:51:17.403Z,24.10
2018-07-28T00:53:46.316Z,24.10
2018-07-28T00:56:15.139Z,24.10
2018-07-28T00:58:43.959Z,24.10
2018-07-28T01:01:12.824Z,24.10
2018-07-28T01:03:41.716Z,24.10
2018-07-28T01:06:10.544Z,24.00
2018-07-28T01:08:39.418Z,23.90
2018-07-28T01:11:08.256Z,24.00
2018-07-28T01:13:37.079Z,23.90
2018-07-28T01:16:05.982Z,23.90
2018-07-28T01:18:34.880Z,23.90
2018-07-28T01:21:03.706Z,23.90
2018-07-28T01:23:32.669Z,23.90
2018-07-28T01:26:01.614Z,23.80
2018-07-28T01:28:30.430Z,23.80
2018-07-28T01:30:59.299Z,23.80
2018-07-28T01:33:28.124Z,23.80
2018-07-28T01:35:56.953Z,23.80
2018-07-28T01:38:25.916Z,23.80
2018-07-28T01:40:54.727Z,23.80
2018-07-28T01:43:23.570Z,23.70
2018-07-28T01:45:52.432Z,23.70
2018-07-28T01:48:21.251Z,23.70
2018-07-28T01:50:50.069Z,23.60
2018-07-28T01:53:18.946Z,23.60
2018-07-28T01:55:47.778Z,23.70
2018-07-28T01:58:17.007Z,23.60
2018-07-28T02:00:45.911Z,23.60
2018-07-28T02:03:14.707Z,23.50
2018-07-28T02:05:43.539Z,23.50
2018-07-28T02:08:12.406Z,23.50
2018-07-28T02:10:41.238Z,23.40
2018-07-28T02:13:10.089Z,23.50
2018-07-28T02:15:39.026Z,23.50
2018-07-28T02:18:07.832Z,23.40
2018-07-28T02:20:36.737Z,23.60
2018-07-28T02:23:05.620Z,23.50
2018-07-28T02:25:34.433Z,23.50
2018-07-28T02:28:03.380Z,23.50
2018-07-28T02:30:32.292Z,23.50
2018-07-28T02:35:29.560Z,23.50
2018-07-28T02:37:58.417Z,23.70
2018-07-28T02:40:27.248Z,23.60
2018-07-28T02:42:56.181Z,23.50
2018-07-28T02:45:25.049Z,23.50
2018-07-28T02:47:53.879Z,23.50
2018-07-28T02:50:22.695Z,23.60
2018-07-28T02:52:51.539Z,23.80
2018-07-28T02:55:20.348Z,23.80
2018-07-28T02:57:49.173Z,23.80
2018-07-28T03:00:18.128Z,23.70
2018-07-28T03:02:46.948Z,23.60
2018-07-28T03:05:15.789Z,23.50
2018-07-28T03:07:44.693Z,23.30
2018-07-28T03:10:13.503Z,23.30
2018-07-28T03:12:42.416Z,23.30
2018-07-28T03:15:27.172Z,23.40
2018-07-28T03:17:56.371Z,23.30
2018-07-28T03:20:25.208Z,23.40
2018-07-28T03:22:54.075Z,23.30
2018-07-28T03:25:22.952Z,23.30
2018-07-28T03:30:20.393Z,23.50
2018-07-28T03:32:49.251Z,23.50
2018-07-28T03:35:18.067Z,23.40
2018-07-28T03:37:47.349Z,23.50
2018-07-28T03:40:16.175Z,23.50
2018-07-28T03:42:45.022Z,23.50
2018-07-28T03:45:13.876Z,23.60
2018-07-28T03:47:42.805Z,23.60
2018-07-28T03:50:11.879Z,23.70
2018-07-28T03:52:40.738Z,23.60
2018-07-28T03:55:10.488Z,23.60
2018-07-28T03:57:39.520Z,23.50
2018-07-28T04:00:11.388Z,23.50
2018-07-28T04:02:40.304Z,23.70
2018-07-28T04:05:10.785Z,23.80
2018-07-28T04:07:40.086Z,23.80
2018-07-28T04:10:09.795Z,23.70
2018-07-28T04:12:39.264Z,23.70
2018-07-28T04:15:10.655Z,23.80
2018-07-28T04:17:55.915Z,24.00
2018-07-28T04:20:26.051Z,24.10
2018-07-28T04:22:55.270Z,24.00
2018-07-28T04:25:24.484Z,24.10
2018-07-28T04:30:21.959Z,24.30
2018-07-28T04:32:50.845Z,24.40
2018-07-28T04:37:51.083Z,24.40
2018-07-28T04:40:19.928Z,24.40
2018-07-28T04:42:48.813Z,24.40
2018-07-28T04:45:17.642Z,24.40
2018-07-28T04:47:46.438Z,24.50
2018-07-28T04:50:15.355Z,24.50
2018-07-28T04:52:44.529Z,24.50
2018-07-28T04:55:13.347Z,24.60
2018-07-28T04:57:42.232Z,24.70
2018-07-28T05:00:11.048Z,24.70
2018-07-28T05:02:39.884Z,24.80
2018-07-28T05:05:08.795Z,24.90
2018-07-28T05:07:37.737Z,24.90
2018-07-28T05:10:06.451Z,24.90
2018-07-28T05:12:35.359Z,25.00
2018-07-28T05:15:04.957Z,25.00
2018-07-28T05:17:33.770Z,25.10
2018-07-28T05:20:02.635Z,25.10
2018-07-28T05:22:31.454Z,25.10
2018-07-28T05:25:00.300Z,25.20
2018-07-28T05:27:29.138Z,25.20
2018-07-28T05:29:57.974Z,25.30
2018-07-28T05:32:26.820Z,25.30
2018-07-28T05:37:24.224Z,25.30
2018-07-28T05:39:53.042Z,25.40
2018-07-28T05:42:22.140Z,25.40
2018-07-28T05:44:51.324Z,25.50
2018-07-28T05:47:20.200Z,25.50
2018-07-28T05:49:49.051Z,25.50
2018-07-28T05:52:17.882Z,25.60
2018-07-28T05:54:46.815Z,25.60
2018-07-28T05:57:15.662Z,25.70
2018-07-28T05:59:44.572Z,25.70
2018-07-28T06:04:41.939Z,25.70
2018-07-28T06:07:10.779Z,25.80
2018-07-28T06:09:39.606Z,25.80
2018-07-28T06:12:08.516Z,25.80
2018-07-28T06:14:37.910Z,25.80
2018-07-28T06:17:06.793Z,25.90
2018-07-28T06:19:35.646Z,25.90
2018-07-28T06:22:04.627Z,25.90
2018-07-28T06:24:33.426Z,25.90
2018-07-28T06:27:02.256Z,26.00
2018-07-28T06:29:31.137Z,26.00
2018-07-28T06:32:00.179Z,26.00
2018-07-28T06:34:29.015Z,26.10
2018-07-28T06:36:57.980Z,26.10
2018-07-28T06:39:27.051Z,26.10
2018-07-28T06:41:55.890Z,26.20
2018-07-28T06:44:24.716Z,26.20
2018-07-28T06:46:53.591Z,26.20
2018-07-28T06:49:22.531Z,26.30
2018-07-28T06:51:51.394Z,26.30
2018-07-28T06:54:20.244Z,26.30
2018-07-28T06:56:49.103Z,26.40
2018-07-28T06:59:17.938Z,26.40
2018-07-28T07:01:46.751Z,26.40
2018-07-28T07:04:15.644Z,26.50
2018-07-28T07:06:44.585Z,26.50
2018-07-28T07:09:13.428Z,26.50
2018-07-28T07:11:42.292Z,26.50
2018-07-28T07:14:11.269Z,26.60
2018-07-28T07:16:40.173Z,26.60
2018-07-28T07:19:09.100Z,26.60
2018-07-28T07:21:37.988Z,26.60
2018-07-28T07:24:06.970Z,26.70
2018-07-28T07:26:35.920Z,26.70
2018-07-28T07:29:04.787Z,26.70
2018-07-28T07:31:33.615Z,26.80
2018-07-28T07:34:02.499Z,26.80
2018-07-28T07:36:31.374Z,26.80
2018-07-28T07:39:00.272Z,26.80
2018-07-28T07:41:29.203Z,26.80
2018-07-28T07:43:58.128Z,26.90
2018-07-28T07:46:26.964Z,26.90
2018-07-28T07:48:55.850Z,26.90
2018-07-28T07:51:24.957Z,26.90
2018-07-28T07:53:53.848Z,27.00
2018-07-28T07:56:22.723Z,27.00
2018-07-28T07:58:51.575Z,27.00
2018-07-28T08:01:20.415Z,27.00
2018-07-28T08:03:49.384Z,27.00
2018-07-28T08:06:18.294Z,27.10
2018-07-28T08:08:47.215Z,27.10
2018-07-28T08:11:16.031Z,27.10
2018-07-28T08:13:44.920Z,27.20
2018-07-28T08:16:13.791Z,27.20
2018-07-28T08:18:42.641Z,27.20
2018-07-28T08:21:11.489Z,27.30
2018-07-28T08:23:40.813Z,27.30
2018-07-28T08:26:09.831Z,27.40
2018-07-28T08:28:38.988Z,27.40
2018-07-28T08:31:07.967Z,27.40
2018-07-28T08:33:36.809Z,27.40
2018-07-28T08:36:05.861Z,27.40
2018-07-28T08:38:34.784Z,27.40
2018-07-28T08:41:03.657Z,27.40
2018-07-28T08:43:32.480Z,27.40
2018-07-28T08:46:01.348Z,27.40
2018-07-28T08:48:30.211Z,27.50
2018-07-28T08:50:59.026Z,27.50
2018-07-28T08:53:27.880Z,27.50
2018-07-28T08:58:25.265Z,27.60
2018-07-28T09:00:54.491Z,27.60
2018-07-28T09:03:23.391Z,27.70
2018-07-28T09:05:52.326Z,27.70
2018-07-28T09:08:21.274Z,27.70
2018-07-28T09:10:50.324Z,27.80
2018-07-28T09:13:19.163Z,27.90
2018-07-28T09:15:49.328Z,27.90
2018-07-28T09:18:18.225Z,28.00
2018-07-28T09:20:47.128Z,28.00
2018-07-28T09:23:17.557Z,28.00
2018-07-28T09:25:46.435Z,28.00
2018-07-28T09:28:15.485Z,28.00
2018-07-28T09:33:12.923Z,28.10
2018-07-28T09:35:41.785Z,28.10
2018-07-28T09:38:10.632Z,28.20
2018-07-28T09:40:39.488Z,28.20
2018-07-28T09:43:08.420Z,28.30
2018-07-28T09:45:37.352Z,28.30
2018-07-28T09:48:06.400Z,28.30
2018-07-28T09:50:35.275Z,28.30
2018-07-28T09:53:04.169Z,28.40
2018-07-28T09:55:33.204Z,28.40
2018-07-28T09:58:02.023Z,28.50
2018-07-28T10:00:36.159Z,28.40
2018-07-28T10:05:33.496Z,28.40
2018-07-28T10:08:02.315Z,28.50
2018-07-28T10:10:31.151Z,28.50
2018-07-28T10:12:59.951Z,28.50
2018-07-28T10:15:28.937Z,28.50
2018-07-28T10:17:57.768Z,28.50
2018-07-28T10:20:26.580Z,28.60
2018-07-28T10:22:55.701Z,28.60
2018-07-28T10:25:24.530Z,28.50
2018-07-28T10:27:53.356Z,28.50
2018-07-28T10:30:22.760Z,28.50
2018-07-28T10:32:51.627Z,28.60
2018-07-28T10:35:20.461Z,28.50
2018-07-28T10:37:49.372Z,28.50
2018-07-28T10:40:18.216Z,28.60
2018-07-28T10:42:47.019Z,28.60
2018-07-28T10:45:16.227Z,28.60
2018-07-28T10:47:45.136Z,28.70
2018-07-28T10:50:13.955Z,28.70
2018-07-28T10:52:42.784Z,28.70
2018-07-28T10:55:11.653Z,28.70
2018-07-28T10:57:40.489Z,28.70
2018-07-28T11:00:09.542Z,28.70
2018-07-28T11:02:38.375Z,28.70
2018-07-28T11:05:07.314Z,28.80
2018-07-28T11:07:36.134Z,28.80
2018-07-28T11:10:05.720Z,28.90
2018-07-28T11:12:34.768Z,28.90
2018-07-28T11:15:03.607Z,28.90
2018-07-28T11:17:32.422Z,29.00
2018-07-28T11:20:01.469Z,29.00
2018-07-28T11:22:32.354Z,29.00
2018-07-28T11:25:03.586Z,29.00
2018-07-28T11:27:32.535Z,29.00
2018-07-28T11:30:01.348Z,29.00
2018-07-28T11:32:41.096Z,29.00
2018-07-28T11:35:21.209Z,29.00
2018-07-28T11:38:35.472Z,29.00
2018-07-28T11:41:15.267Z,29.00
2018-07-28T11:43:55.456Z,29.00
2018-07-28T11:46:24.286Z,29.00
2018-07-28T11:48:53.092Z,29.10
2018-07-28T11:51:22.032Z,29.10
2018-07-28T11:53:50.911Z,29.10
2018-07-28T11:56:19.746Z,29.00
2018-07-28T11:58:48.639Z,29.10
2018-07-28T12:01:17.451Z,29.10
2018-07-28T12:03:46.287Z,29.10
2018-07-28T12:06:15.243Z,29.10
2018-07-28T12:08:44.063Z,29.10
2018-07-28T12:11:12.875Z,29.10
2018-07-28T12:13:41.749Z,29.10
2018-07-28T12:16:10.563Z,29.00
2018-07-28T12:18:39.422Z,29.00
2018-07-28T12:21:08.347Z,29.00
2018-07-28T12:23:37.190Z,29.00
2018-07-28T12:26:06.119Z,28.90
2018-07-28T12:28:35.022Z,28.90
2018-07-28T12:31:03.885Z,28.90
2018-07-28T12:33:33.731Z,29.00
2018-07-28T12:36:02.571Z,29.00
2018-07-28T12:38:31.482Z,29.00
2018-07-28T12:41:00.699Z,29.00
2018-07-28T12:43:29.472Z,29.00
2018-07-28T12:45:58.383Z,29.00
2018-07-28T12:48:27.223Z,28.90
2018-07-28T12:50:56.055Z,28.90
2018-07-28T12:53:24.880Z,28.90
2018-07-28T12:55:53.768Z,28.90
2018-07-28T12:58:22.608Z,28.90
2018-07-28T13:00:51.532Z,29.00
2018-07-28T13:03:20.514Z,29.00
2018-07-28T13:05:49.331Z,29.00
2018-07-28T13:08:18.187Z,29.00
2018-07-28T13:10:47.085Z,28.90
2018-07-28T13:13:16.052Z,28.90
2018-07-28T13:15:44.963Z,28.90
2018-07-28T13:18:13.776Z,28.90
2018-07-28T13:20:42.641Z,28.90
2018-07-28T13:23:11.508Z,28.90
2018-07-28T13:25:40.321Z,28.90
2018-07-28T13:28:09.127Z,28.80
2018-07-28T13:30:38.035Z,28.80
2018-07-28T13:33:06.917Z,28.80
2018-07-28T13:35:35.800Z,28.80
2018-07-28T13:38:04.704Z,28.80
2018-07-28T13:40:33.558Z,28.80
2018-07-28T13:43:02.401Z,28.70
2018-07-28T13:45:31.311Z,28.70
2018-07-28T13:48:00.128Z,28.70
2018-07-28T13:52:57.423Z,28.60
2018-07-28T13:55:26.273Z,28.60
2018-07-28T13:57:55.093Z,28.60
2018-07-28T14:00:24.028Z,28.60
2018-07-28T14:02:52.931Z,28.60
2018-07-28T14:05:21.775Z,28.60
2018-07-28T14:07:50.658Z,28.50
2018-07-28T14:10:19.575Z,28.50
2018-07-28T14:12:48.496Z,28.50
2018-07-28T14:15:17.470Z,28.50
2018-07-28T14:17:46.525Z,28.50
2018-07-28T14:20:15.384Z,28.50
2018-07-28T14:22:44.220Z,28.50
2018-07-28T14:25:13.175Z,28.50
2018-07-28T14:27:42.156Z,28.50
2018-07-28T14:30:11.069Z,28.50
2018-07-28T14:32:40.067Z,28.50
2018-07-28T14:37:37.638Z,28.50
2018-07-28T14:42:35.081Z,28.40
2018-07-28T14:45:03.896Z,28.40
2018-07-28T14:47:32.737Z,28.40
2018-07-28T14:50:01.655Z,28.40
2018-07-28T14:52:30.472Z,28.50
2018-07-28T14:55:00.191Z,28.50
2018-07-28T14:57:29.266Z,28.40
2018-07-28T14:59:58.158Z,28.40
2018-07-28T15:02:26.981Z,28.40
2018-07-28T15:04:55.983Z,28.40
2018-07-28T15:07:24.962Z,28.40
2018-07-28T15:09:56.117Z,28.40
2018-07-28T15:12:26.347Z,28.40
2018-07-28T15:14:55.307Z,28.40
2018-07-28T15:17:24.157Z,28.40
2018-07-28T15:19:52.989Z,28.40
2018-07-28T15:22:21.885Z,28.40
2018-07-28T15:24:50.707Z,28.40
2018-07-28T15:27:19.536Z,28.40
2018-07-28T15:29:48.474Z,28.40
2018-07-28T15:32:17.312Z,28.40
2018-07-28T15:34:46.227Z,28.40
2018-07-28T15:39:43.748Z,28.40
2018-07-28T15:42:13.260Z,28.40
2018-07-28T15:44:42.080Z,28.40
2018-07-28T15:47:10.954Z,28.40
2018-07-28T15:49:39.959Z,28.40
2018-07-28T15:52:08.784Z,28.40
2018-07-28T15:54:37.675Z,28.40
2018-07-28T15:57:06.627Z,28.40
2018-07-28T15:59:36.516Z,28.40
2018-07-28T16:02:05.344Z,28.30
2018-07-28T16:04:34.780Z,28.30
2018-07-28T16:07:03.667Z,28.20
2018-07-28T16:09:32.575Z,28.20
2018-07-28T16:12:01.446Z,28.20
2018-07-28T16:14:33.317Z,28.20
2018-07-28T16:17:02.190Z,28.20
2018-07-28T16:19:31.215Z,28.20
2018-07-28T16:22:00.032Z,28.20
2018-07-28T16:24:28.930Z,28.20
2018-07-28T16:26:58.171Z,28.20
2018-07-28T16:29:26.988Z,28.30
2018-07-28T16:31:58.102Z,28.40
2018-07-28T16:36:55.512Z,28.40
2018-07-28T16:39:24.380Z,28.40
2018-07-28T16:41:53.410Z,28.40
2018-07-28T16:44:22.320Z,28.40
2018-07-28T16:46:51.522Z,28.40
2018-07-28T16:49:20.728Z,28.40
2018-07-28T16:51:50.359Z,28.50
2018-07-28T16:54:19.212Z,28.50
2018-07-28T16:56:48.056Z,28.50
2018-07-28T16:59:16.939Z,28.40
2018-07-28T17:01:45.813Z,28.50
2018-07-28T17:04:14.643Z,28.40
2018-07-28T17:06:43.738Z,28.40
2018-07-28T17:09:13.571Z,28.40
2018-07-28T17:11:43.604Z,28.40
2018-07-28T17:14:12.536Z,28.40
2018-07-28T17:16:41.275Z,28.40
2018-07-28T17:19:10.121Z,28.40
2018-07-28T17:21:39.021Z,28.40
2018-07-28T17:24:07.830Z,28.40
2018-07-28T17:26:36.670Z,28.40
2018-07-28T17:29:05.503Z,28.40
2018-07-28T17:31:34.362Z,28.30
2018-07-28T17:34:03.288Z,28.40
2018-07-28T17:36:32.116Z,28.40
2018-07-28T17:39:00.947Z,28.40
2018-07-28T17:41:30.218Z,28.40
2018-07-28T17:43:59.130Z,28.40
2018-07-28T17:46:27.967Z,28.40
2018-07-28T17:48:56.863Z,28.40
2018-07-28T17:51:25.988Z,28.30
2018-07-28T17:53:54.805Z,28.30
2018-07-28T17:56:23.655Z,28.30
2018-07-28T17:58:52.552Z,28.30
2018-07-28T18:01:21.386Z,28.30
2018-07-28T18:03:50.248Z,28.30
2018-07-28T18:06:19.075Z,28.20
2018-07-28T18:08:47.930Z,28.20
2018-07-28T18:11:16.915Z,28.20
2018-07-28T18:13:45.764Z,28.20
2018-07-28T18:16:14.688Z,28.20
2018-07-28T18:18:43.534Z,28.20
2018-07-28T18:21:12.344Z,28.20
2018-07-28T18:23:41.243Z,28.20
2018-07-28T18:26:10.067Z,28.20
2018-07-28T18:28:38.895Z,28.20
2018-07-28T18:31:07.783Z,28.10
2018-07-28T18:33:36.614Z,28.10
2018-07-28T18:36:05.499Z,28.10
2018-07-28T18:38:34.533Z,28.10
2018-07-28T18:41:03.460Z,28.10
2018-07-28T18:43:32.470Z,28.10
2018-07-28T18:46:01.417Z,28.10
2018-07-28T18:48:30.318Z,28.10
2018-07-28T18:50:59.195Z,28.10
2018-07-28T18:53:28.061Z,28.10
2018-07-28T18:55:56.952Z,28.10
2018-07-28T18:58:25.866Z,28.10
2018-07-28T19:00:54.726Z,28.10
2018-07-28T19:05:52.156Z,28.00
2018-07-28T19:08:21.317Z,28.00
2018-07-28T19:10:51.831Z,28.00
2018-07-28T19:13:26.430Z,28.00
2018-07-28T19:15:55.646Z,28.00
2018-07-28T19:18:30.141Z,28.00
2018-07-28T19:20:59.017Z,28.00
2018-07-28T19:23:33.256Z,27.90
2018-07-28T19:26:02.127Z,27.80
2018-07-28T19:28:36.335Z,27.80
2018-07-28T19:31:05.225Z,27.80
2018-07-28T19:33:34.092Z,27.80
2018-07-28T19:36:08.236Z,27.80
2018-07-28T19:38:37.099Z,27.80
2018-07-28T19:41:05.934Z,27.70
2018-07-28T19:43:34.811Z,27.70
2018-07-28T19:46:03.709Z,27.70
2018-07-28T19:51:01.086Z,27.70
2018-07-28T19:53:29.926Z,27.70
2018-07-28T19:55:58.761Z,27.60
2018-07-28T19:58:27.636Z,27.60
2018-07-28T20:00:56.448Z,27.60
2018-07-28T20:03:25.866Z,27.60
2018-07-28T20:08:26.377Z,27.50
2018-07-28T20:10:55.343Z,27.60
2018-07-28T20:13:24.231Z,27.60
2018-07-28T20:15:53.327Z,27.60
2018-07-28T20:18:22.158Z,27.60
2018-07-28T20:20:51.240Z,27.50
2018-07-28T20:23:20.450Z,27.60
2018-07-28T20:25:49.271Z,27.60
2018-07-28T20:28:18.252Z,27.60
2018-07-28T20:30:47.160Z,27.60
2018-07-28T20:33:15.992Z,27.60
2018-07-28T20:35:44.803Z,27.50
2018-07-28T20:38:13.800Z,27.50
2018-07-28T20:40:42.611Z,27.50
2018-07-28T20:43:11.763Z,27.50
2018-07-28T20:45:40.663Z,27.50
2018-07-28T20:48:09.541Z,27.50
2018-07-28T20:50:39.017Z,27.50
2018-07-28T20:53:07.904Z,27.50
2018-07-28T20:55:36.734Z,27.50
2018-07-28T20:58:05.696Z,27.50
2018-07-28T21:00:34.546Z,27.50
2018-07-28T21:03:03.360Z,27.50
2018-07-28T21:05:32.187Z,27.50
2018-07-28T21:08:01.166Z,27.50
2018-07-28T21:10:30.036Z,27.40
2018-07-28T21:12:58.917Z,27.40
2018-07-28T21:15:27.784Z,27.40
2018-07-28T21:17:56.686Z,27.40
2018-07-28T21:20:25.496Z,27.40
2018-07-28T21:22:54.404Z,27.40
2018-07-28T21:25:23.309Z,27.40
2018-07-28T21:27:52.163Z,27.40
2018-07-28T21:30:21.011Z,27.40
2018-07-28T21:32:49.849Z,27.40
2018-07-28T21:35:19.594Z,27.40
2018-07-28T21:37:48.540Z,27.40
2018-07-28T21:40:17.427Z,27.40
2018-07-28T21:42:46.230Z,27.30
2018-07-28T21:45:15.089Z,27.30
2018-07-28T21:47:43.910Z,27.30
2018-07-28T21:50:12.712Z,27.30
2018-07-28T21:52:41.656Z,27.30
2018-07-28T21:55:10.489Z,27.30
2018-07-28T21:57:39.338Z,27.30
2018-07-28T22:00:12.224Z,27.30
2018-07-28T22:02:41.076Z,27.30
2018-07-28T22:05:10.034Z,27.20
2018-07-28T22:07:38.899Z,27.00
2018-07-28T22:10:07.719Z,27.00
2018-07-28T22:12:36.580Z,27.00
2018-07-28T22:15:05.889Z,27.00
2018-07-28T22:17:34.721Z,27.10
2018-07-28T22:20:03.605Z,27.10
2018-07-28T22:22:32.495Z,27.00
2018-07-28T22:25:01.304Z,26.90
2018-07-28T22:27:31.125Z,26.60
2018-07-28T22:30:00.583Z,26.70
2018-07-28T22:32:29.420Z,26.80
2018-07-28T22:34:58.241Z,26.90
2018-07-28T22:37:27.095Z,26.90
2018-07-28T22:39:55.904Z,26.90
2018-07-28T22:42:55.479Z,26.90
2018-07-28T22:45:24.368Z,26.90
2018-07-28T22:47:53.211Z,27.00
2018-07-28T22:50:22.530Z,26.90
2018-07-28T22:52:51.353Z,26.60
2018-07-28T22:55:20.828Z,26.30
2018-07-28T22:57:49.736Z,26.10
2018-07-28T23:00:19.003Z,26.10
2018-07-28T23:02:47.811Z,25.90
2018-07-28T23:05:18.115Z,25.90
2018-07-28T23:07:47.066Z,25.80
2018-07-28T23:10:15.896Z,25.70
2018-07-28T23:12:44.711Z,25.70
2018-07-28T23:15:13.586Z,25.80
2018-07-28T23:17:42.910Z,25.90
2018-07-28T23:20:11.753Z,25.80
2018-07-28T23:22:41.072Z,25.90
2018-07-28T23:25:09.887Z,25.80
2018-07-28T23:27:38.716Z,25.90
2018-07-28T23:30:09.540Z,25.90
2018-07-28T23:32:38.730Z,25.80
2018-07-28T23:35:07.932Z,25.80
2018-07-28T23:37:37.101Z,25.80
2018-07-28T23:40:06.355Z,25.80
2018-07-28T23:42:35.261Z,25.60
2018-07-28T23:45:04.178Z,25.40
2018-07-28T23:47:33.015Z,25.30
2018-07-28T23:50:01.829Z,25.30
2018-07-28T23:52:30.711Z,25.20
2018-07-28T23:54:59.527Z,25.20
2018-07-28T23:57:28.414Z,25.20
2018-07-28T23:59:57.286Z,25.20
